createdAt,value
2022-08-26T00:01:01.243Z,99351.16
2022-08-26T00:04:03.666Z,99355.97
2022-08-26T00:07:06.259Z,99356.16
2022-08-26T00:10:08.358Z,99357.56
2022-08-26T00:13:11.621Z,99351.09
2022-08-26T00:16:13.244Z,99353.78
2022-08-26T00:19:19.626Z,99353.75
2022-08-26T00:22:22.166Z,99367.81
2022-08-26T00:25:24.315Z,99370.06
2022-08-26T00:28:26.724Z,99371.03
2022-08-26T00:31:28.805Z,99381.44
2022-08-26T00:34:33.054Z,99379.91
2022-08-26T00:37:34.899Z,99384.59
2022-08-26T00:40:40.910Z,99390.50
2022-08-26T00:43:46.307Z,99395.53
2022-08-26T00:46:52.843Z,99385.66
2022-08-26T00:49:56.676Z,99385.56
2022-08-26T00:53:01.859Z,99379.44
2022-08-26T00:56:17.592Z,99382.88
2022-08-26T00:59:20.411Z,99373.03
2022-08-26T01:02:22.931Z,99373.94
2022-08-26T01:05:25.363Z,99379.50
2022-08-26T01:08:27.445Z,99387.19
2022-08-26T01:11:29.407Z,99390.97
2022-08-26T01:14:33.954Z,99394.06
2022-08-26T01:17:37.565Z,99389.41
2022-08-26T01:20:48.223Z,99393.22
2022-08-26T01:23:51.738Z,99399.16
2022-08-26T01:27:05.219Z,99392.34
2022-08-26T01:30:07.554Z,99397.28
2022-08-26T01:33:13.000Z,99399.19
2022-08-26T01:36:15.282Z,99392.91
2022-08-26T01:39:18.156Z,99394.28
2022-08-26T01:42:22.300Z,99398.59
2022-08-26T01:45:29.666Z,99390.72
2022-08-26T01:48:34.297Z,99388.66
2022-08-26T01:51:39.254Z,99398.25
2022-08-26T01:54:41.344Z,99394.69
2022-08-26T01:57:52.117Z,99402.81
2022-08-26T02:00:58.699Z,99406.81
2022-08-26T02:04:09.918Z,99407.19
2022-08-26T02:07:12.345Z,99416.56
2022-08-26T02:10:15.082Z,99412.16
2022-08-26T02:13:16.949Z,99406.38
2022-08-26T02:16:24.451Z,99417.94
2022-08-26T02:19:30.185Z,99414.81
2022-08-26T02:22:32.418Z,99408.81
2022-08-26T02:25:39.887Z,99415.97
2022-08-26T02:28:52.816Z,99410.50
2022-08-26T02:31:55.764Z,99422.19
2022-08-26T02:34:57.402Z,99416.50
2022-08-26T02:38:00.613Z,99414.75
2022-08-26T02:41:02.345Z,99411.97
2022-08-26T02:44:04.461Z,99415.97
2022-08-26T02:47:08.077Z,99407.84
2022-08-26T02:50:09.766Z,99407.28
2022-08-26T02:53:12.195Z,99407.00
2022-08-26T02:56:14.677Z,99405.09
2022-08-26T02:59:16.240Z,99405.72
2022-08-26T03:02:18.372Z,99410.06
2022-08-26T03:05:22.032Z,99412.16
2022-08-26T03:08:25.680Z,99413.28
2022-08-26T03:11:32.267Z,99409.75
2022-08-26T03:14:34.273Z,99408.38
2022-08-26T03:17:35.719Z,99405.69
2022-08-26T03:20:37.373Z,99402.31
2022-08-26T03:23:40.143Z,99403.41
2022-08-26T03:26:52.076Z,99404.09
2022-08-26T03:30:12.877Z,99396.19
2022-08-26T03:33:16.355Z,99402.81
2022-08-26T03:36:19.103Z,99399.91
2022-08-26T03:39:20.716Z,99401.03
2022-08-26T03:42:23.561Z,99397.03
2022-08-26T03:45:25.525Z,99395.09
2022-08-26T03:48:26.961Z,99403.06
2022-08-26T03:51:29.185Z,99404.09
2022-08-26T03:54:30.688Z,99403.31
2022-08-26T03:57:32.406Z,99401.00
2022-08-26T04:00:34.402Z,99403.41
2022-08-26T04:03:54.282Z,99408.47
2022-08-26T04:06:58.420Z,99401.34
2022-08-26T04:10:00.072Z,99404.59
2022-08-26T04:13:02.385Z,99410.47
2022-08-26T04:16:03.937Z,99402.03
2022-08-26T04:19:06.520Z,99397.03
2022-08-26T04:22:08.722Z,99400.31
2022-08-26T04:25:12.455Z,99400.69
2022-08-26T04:28:14.751Z,99406.50
2022-08-26T04:31:17.597Z,99405.22
2022-08-26T04:34:21.144Z,99408.22
2022-08-26T04:37:23.207Z,99415.41
2022-08-26T04:40:27.586Z,99409.84
2022-08-26T04:43:31.217Z,99409.84
2022-08-26T04:46:33.127Z,99413.44
2022-08-26T04:49:35.391Z,99418.31
2022-08-26T04:52:37.326Z,99420.59
2022-08-26T04:55:39.939Z,99418.53
2022-08-26T04:58:45.648Z,99420.63
2022-08-26T05:01:50.198Z,99429.06
2022-08-26T05:04:52.360Z,99424.84
2022-08-26T05:07:53.928Z,99434.16
2022-08-26T05:10:56.270Z,99435.09
2022-08-26T05:14:01.605Z,99433.03
2022-08-26T05:17:04.150Z,99436.38
2022-08-26T05:20:06.759Z,99434.97
2022-08-26T05:23:08.529Z,99439.25
2022-08-26T05:26:10.501Z,99440.75
2022-08-26T05:29:12.510Z,99445.19
2022-08-26T05:32:14.855Z,99450.38
2022-08-26T05:35:17.655Z,99453.03
2022-08-26T05:38:21.825Z,99457.91
2022-08-26T05:41:34.339Z,99456.06
2022-08-26T05:44:55.520Z,99458.16
2022-08-26T05:47:57.857Z,99452.84
2022-08-26T05:51:03.832Z,99460.84
2022-08-26T05:54:06.894Z,99463.25
2022-08-26T05:57:08.352Z,99462.31
2022-08-26T06:00:11.496Z,99464.19
2022-08-26T06:03:13.775Z,99463.03
2022-08-26T06:06:27.460Z,99472.19
2022-08-26T06:09:29.564Z,99471.47
2022-08-26T06:12:32.531Z,99466.84
2022-08-26T06:15:35.513Z,99469.97
2022-08-26T06:18:40.049Z,99473.34
2022-08-26T06:21:45.016Z,99468.22
2022-08-26T06:25:05.284Z,99461.94
2022-08-26T06:28:07.913Z,99474.84
2022-08-26T06:31:10.127Z,99475.84
2022-08-26T06:34:12.770Z,99477.84
2022-08-26T06:37:14.219Z,99481.81
2022-08-26T06:40:15.688Z,99481.81
2022-08-26T06:43:19.787Z,99483.75
2022-08-26T06:46:22.012Z,99480.59
2022-08-26T06:49:26.735Z,99484.81
2022-08-26T06:52:29.329Z,99483.13
2022-08-26T06:55:30.880Z,99483.63
2022-08-26T06:58:34.219Z,99492.66
2022-08-26T07:01:39.257Z,99489.13
2022-08-26T07:04:44.574Z,99489.63
2022-08-26T07:07:49.449Z,99488.06
2022-08-26T07:10:51.109Z,99482.69
2022-08-26T07:13:58.879Z,99492.16
2022-08-26T07:17:02.782Z,99483.78
2022-08-26T07:20:07.568Z,99479.75
2022-08-26T07:23:11.844Z,99482.66
2022-08-26T07:26:16.714Z,99484.13
2022-08-26T07:29:18.537Z,99495.69
2022-08-26T07:32:20.998Z,99491.06
2022-08-26T07:35:25.918Z,99498.09
2022-08-26T07:38:27.973Z,99485.50
2022-08-26T07:41:31.157Z,99489.84
2022-08-26T07:44:33.459Z,99487.75
2022-08-26T07:47:35.031Z,99494.78
2022-08-26T07:50:49.126Z,99488.44
2022-08-26T07:53:52.531Z,99492.69
2022-08-26T07:56:55.903Z,99492.13
2022-08-26T07:59:57.641Z,99483.22
2022-08-26T08:03:00.617Z,99493.72
2022-08-26T08:06:02.050Z,99491.81
2022-08-26T08:09:05.415Z,99491.91
2022-08-26T08:12:09.407Z,99488.75
2022-08-26T08:15:16.683Z,99485.81
2022-08-26T08:18:20.511Z,99484.69
2022-08-26T08:21:26.215Z,99479.38
2022-08-26T08:24:27.760Z,99483.66
2022-08-26T08:27:29.306Z,99488.66
2022-08-26T08:30:31.734Z,99484.41
2022-08-26T08:33:36.667Z,99482.63
2022-08-26T08:36:40.092Z,99479.91
2022-08-26T08:39:43.083Z,99475.31
2022-08-26T08:42:47.070Z,99479.06
2022-08-26T08:45:57.682Z,99481.75
2022-08-26T08:49:00.028Z,99481.41
2022-08-26T08:52:07.492Z,99473.69
2022-08-26T08:55:11.072Z,99487.16
2022-08-26T08:58:19.717Z,99482.06
2022-08-26T09:01:30.338Z,99473.13
2022-08-26T09:05:03.042Z,99479.78
2022-08-26T09:08:12.145Z,99469.72
2022-08-26T09:11:15.966Z,99470.28
2022-08-26T09:14:19.097Z,99472.41
2022-08-26T09:17:43.775Z,99473.31
2022-08-26T09:20:56.761Z,99474.44
2022-08-26T09:23:59.107Z,99473.28
2022-08-26T09:27:00.593Z,99459.53
2022-08-26T09:30:02.013Z,99456.31
2022-08-26T09:33:10.103Z,99454.44
2022-08-26T09:36:18.731Z,99454.66
2022-08-26T09:39:33.109Z,99441.47
2022-08-26T09:42:34.765Z,99453.69
2022-08-26T09:45:36.561Z,99444.69
2022-08-26T09:48:41.072Z,99449.47
2022-08-26T09:51:42.732Z,99446.19
2022-08-26T09:54:45.426Z,99442.47
2022-08-26T09:57:54.172Z,99433.34
2022-08-26T10:00:58.816Z,99429.34
2022-08-26T10:04:08.832Z,99421.19
2022-08-26T10:07:10.617Z,99422.31
2022-08-26T10:10:22.143Z,99417.50
2022-08-26T10:13:32.136Z,99422.69
2022-08-26T10:16:56.321Z,99409.00
2022-08-26T10:20:05.795Z,99407.09
2022-08-26T10:23:27.297Z,99403.66
2022-08-26T10:26:44.495Z,99398.31
2022-08-26T10:29:50.614Z,99392.63
2022-08-26T10:33:01.061Z,99396.41
2022-08-26T10:36:30.090Z,99395.69
2022-08-26T10:39:57.338Z,99390.44
2022-08-26T10:43:13.986Z,99390.22
2022-08-26T10:46:20.556Z,99383.94
2022-08-26T10:49:22.259Z,99390.59
2022-08-26T10:52:39.278Z,99383.34
2022-08-26T10:56:02.768Z,99382.16
2022-08-26T10:59:12.440Z,99389.25
2022-08-26T11:02:41.458Z,99391.78
2022-08-26T11:06:20.408Z,99388.28
2022-08-26T11:09:47.540Z,99378.47
2022-08-26T11:12:54.103Z,99371.75
2022-08-26T11:15:55.668Z,99374.00
2022-08-26T11:18:57.145Z,99363.56
2022-08-26T11:22:09.993Z,99358.28
2022-08-26T11:25:29.697Z,99353.09
2022-08-26T11:28:37.212Z,99358.34
2022-08-26T11:31:39.038Z,99356.41
2022-08-26T11:35:00.444Z,99353.84
2022-08-26T11:38:26.993Z,99351.81
2022-08-26T11:41:30.730Z,99345.47
2022-08-26T11:44:39.669Z,99347.41
2022-08-26T11:47:42.127Z,99349.22
2022-08-26T11:50:59.272Z,99341.56
2022-08-26T11:54:16.414Z,99351.78
2022-08-26T11:57:17.957Z,99341.28
2022-08-26T12:00:54.361Z,99338.34
2022-08-26T12:03:58.492Z,99349.31
2022-08-26T12:07:02.277Z,99346.34
2022-08-26T12:10:06.856Z,99342.06
2022-08-26T12:13:17.693Z,99333.50
2022-08-26T12:16:27.174Z,99328.88
2022-08-26T12:19:33.258Z,99322.53
2022-08-26T12:22:36.090Z,99318.63
2022-08-26T12:25:39.314Z,99320.66
2022-08-26T12:28:46.993Z,99322.88
2022-08-26T12:31:48.750Z,99322.03
2022-08-26T12:34:51.059Z,99321.88
2022-08-26T12:37:54.503Z,99317.69
2022-08-26T12:40:57.006Z,99312.19
2022-08-26T12:43:58.450Z,99317.97
2022-08-26T12:47:09.963Z,99308.94
2022-08-26T12:50:25.249Z,99305.22
2022-08-26T12:53:33.234Z,99301.16
2022-08-26T12:56:40.588Z,99299.66
2022-08-26T12:59:42.019Z,99302.88
2022-08-26T13:02:43.530Z,99301.28
2022-08-26T13:05:45.218Z,99302.66
2022-08-26T13:09:10.599Z,99302.94
2022-08-26T13:12:12.675Z,99290.03
2022-08-26T13:15:14.173Z,99301.97
2022-08-26T13:18:15.637Z,99296.78
2022-08-26T13:21:20.606Z,99303.13
2022-08-26T13:24:35.141Z,99308.19
2022-08-26T13:27:36.751Z,99300.97
2022-08-26T13:30:40.405Z,99304.91
2022-08-26T13:33:44.501Z,99290.00
2022-08-26T13:36:50.789Z,99297.75
2022-08-26T13:39:53.570Z,99317.25
2022-08-26T13:42:55.401Z,99310.06
2022-08-26T13:45:57.159Z,99316.16
2022-08-26T13:48:58.796Z,99307.63
2022-08-26T13:52:00.293Z,99305.31
2022-08-26T13:55:02.199Z,99306.16
2022-08-26T13:58:03.724Z,99294.59
2022-08-26T14:01:05.344Z,99289.09
2022-08-26T14:04:07.411Z,99275.19
2022-08-26T14:07:08.966Z,99264.50
2022-08-26T14:10:11.900Z,99268.78
2022-08-26T14:13:15.328Z,99270.06
2022-08-26T14:16:27.170Z,99297.13
2022-08-26T14:19:30.021Z,99292.47
2022-08-26T14:22:32.953Z,99281.09
2022-08-26T14:25:34.492Z,99283.81
2022-08-26T14:28:36.175Z,99287.72
2022-08-26T14:31:37.956Z,99299.78
2022-08-26T14:34:41.449Z,99300.81
2022-08-26T14:37:43.183Z,99325.09
2022-08-26T14:40:45.077Z,99367.00
2022-08-26T14:43:59.897Z,99390.09
2022-08-26T14:47:04.206Z,99421.81
2022-08-26T14:50:06.133Z,99426.69
2022-08-26T14:53:26.429Z,99419.78
2022-08-26T14:56:30.956Z,99412.34
2022-08-26T14:59:49.745Z,99405.97
2022-08-26T15:02:51.896Z,99412.31
2022-08-26T15:05:54.565Z,99414.34
2022-08-26T15:08:56.256Z,99397.34
2022-08-26T15:11:58.047Z,99398.19
2022-08-26T15:14:59.713Z,99388.13
2022-08-26T15:18:01.345Z,99379.09
2022-08-26T15:21:04.419Z,99381.22
2022-08-26T15:24:06.213Z,99368.31
2022-08-26T15:27:08.999Z,99369.34
2022-08-26T15:30:12.284Z,99378.34
2022-08-26T15:33:15.384Z,99380.19
2022-08-26T15:36:17.100Z,99376.06
2022-08-26T15:39:18.602Z,99372.63
2022-08-26T15:42:20.946Z,99373.69
2022-08-26T15:45:25.842Z,99374.94
2022-08-26T15:48:28.046Z,99367.69
2022-08-26T15:51:30.834Z,99360.28
2022-08-26T15:54:32.652Z,99353.59
2022-08-26T15:57:34.296Z,99354.97
2022-08-26T16:00:36.540Z,99343.13
2022-08-26T16:03:38.133Z,99346.19
2022-08-26T16:06:40.992Z,99340.06
2022-08-26T16:09:42.584Z,99345.25
2022-08-26T16:12:44.053Z,99346.56
2022-08-26T16:15:46.054Z,99343.09
2022-08-26T16:18:48.392Z,99336.50
2022-08-26T16:21:51.372Z,99333.41
2022-08-26T16:24:57.143Z,99340.19
2022-08-26T16:27:59.154Z,99337.06
2022-08-26T16:31:00.694Z,99338.63
2022-08-26T16:34:02.101Z,99345.47
2022-08-26T16:37:03.965Z,99345.59
2022-08-26T16:40:07.415Z,99350.16
2022-08-26T16:43:09.057Z,99352.25
2022-08-26T16:46:17.160Z,99355.97
2022-08-26T16:49:18.908Z,99363.44
2022-08-26T16:52:20.482Z,99360.22
2022-08-26T16:55:22.907Z,99365.19
2022-08-26T16:58:24.360Z,99363.19
2022-08-26T17:01:25.997Z,99359.56
2022-08-26T17:04:27.920Z,99371.56
2022-08-26T17:07:29.362Z,99369.50
2022-08-26T17:10:31.836Z,99349.50
2022-08-26T17:13:35.084Z,99360.25
2022-08-26T17:16:37.831Z,99380.38
2022-08-26T17:19:42.913Z,99410.56
2022-08-26T17:22:50.828Z,99401.97
2022-08-26T17:25:52.320Z,99418.16
2022-08-26T17:28:54.820Z,99429.28
2022-08-26T17:31:56.376Z,99440.44
2022-08-26T17:34:57.894Z,99441.63
2022-08-26T17:37:59.879Z,99403.38
2022-08-26T17:41:01.357Z,99428.34
2022-08-26T17:44:03.103Z,99430.47
2022-08-26T17:47:05.332Z,99432.22
2022-08-26T17:50:09.863Z,99453.75
2022-08-26T17:53:12.581Z,99460.47
2022-08-26T17:56:25.375Z,99457.09
2022-08-26T17:59:30.471Z,99456.28
2022-08-26T18:02:32.274Z,99465.59
2022-08-26T18:05:33.731Z,99474.72
2022-08-26T18:08:35.273Z,99478.88
2022-08-26T18:11:37.018Z,99485.72
2022-08-26T18:14:38.415Z,99488.16
2022-08-26T18:17:40.292Z,99484.69
2022-08-26T18:20:43.862Z,99474.97
2022-08-26T18:23:46.920Z,99457.31
2022-08-26T18:26:49.550Z,99452.59
2022-08-26T18:29:51.155Z,99443.44
2022-08-26T18:32:52.850Z,99457.91
2022-08-26T18:35:54.229Z,99467.78
2022-08-26T18:38:57.034Z,99480.19
2022-08-26T18:41:58.790Z,99479.59
2022-08-26T18:45:00.154Z,99487.25
2022-08-26T18:48:03.419Z,99485.06
2022-08-26T18:51:06.697Z,99486.44
2022-08-26T18:54:08.303Z,99483.75
2022-08-26T18:57:09.839Z,99477.50
2022-08-26T19:00:12.143Z,99480.41
2022-08-26T19:03:18.414Z,99479.00
2022-08-26T19:06:23.210Z,99495.31
2022-08-26T19:09:26.383Z,99493.59
2022-08-26T19:12:29.544Z,99501.94
2022-08-26T19:15:41.089Z,99502.50
2022-08-26T19:18:42.685Z,99499.03
2022-08-26T19:21:44.474Z,99508.09
2022-08-26T19:24:45.943Z,99501.84
2022-08-26T19:27:47.411Z,99496.63
2022-08-26T19:30:52.985Z,99497.44
2022-08-26T19:33:56.639Z,99504.16
2022-08-26T19:36:58.577Z,99517.44
2022-08-26T19:40:00.182Z,99529.63
2022-08-26T19:43:01.785Z,99536.94
2022-08-26T19:46:10.671Z,99537.97
2022-08-26T19:49:12.180Z,99548.06
2022-08-26T19:52:13.877Z,99546.91
2022-08-26T19:55:18.036Z,99567.56
2022-08-26T19:58:19.583Z,99552.44
2022-08-26T20:01:21.236Z,99548.97
2022-08-26T20:04:23.001Z,99543.75
2022-08-26T20:07:24.443Z,99541.56
2022-08-26T20:10:26.086Z,99545.91
2022-08-26T20:13:28.233Z,99542.47
2022-08-26T20:16:30.011Z,99556.06
2022-08-26T20:19:50.101Z,99564.94
2022-08-26T20:22:51.576Z,99568.38
2022-08-26T20:25:53.014Z,99572.47
2022-08-26T20:28:55.143Z,99577.72
2022-08-26T20:31:56.639Z,99574.25
2022-08-26T20:34:58.151Z,99566.59
2022-08-26T20:37:59.921Z,99566.56
2022-08-26T20:41:01.656Z,99560.78
2022-08-26T20:44:04.129Z,99558.81
2022-08-26T20:47:06.145Z,99557.16
2022-08-26T20:50:08.519Z,99555.91
2022-08-26T20:53:10.064Z,99554.78
2022-08-26T20:56:13.856Z,99552.81
2022-08-26T20:59:16.316Z,99556.78
2022-08-26T21:02:18.123Z,99549.50
2022-08-26T21:05:19.564Z,99561.28
2022-08-26T21:08:21.201Z,99556.13
2022-08-26T21:11:23.328Z,99563.31
2022-08-26T21:14:25.969Z,99558.91
2022-08-26T21:17:29.318Z,99558.91
2022-08-26T21:20:32.478Z,99555.44
2022-08-26T21:23:34.822Z,99555.38
2022-08-26T21:26:36.638Z,99562.19
2022-08-26T21:29:38.003Z,99560.94
2022-08-26T21:32:39.620Z,99554.16
2022-08-26T21:35:41.075Z,99554.16
2022-08-26T21:38:42.604Z,99548.09
2022-08-26T21:41:45.405Z,99556.97
2022-08-26T21:44:52.719Z,99556.34
2022-08-26T21:47:54.526Z,99563.75
2022-08-26T21:50:57.080Z,99562.06
2022-08-26T21:54:00.478Z,99572.00
2022-08-26T21:57:02.005Z,99577.94
2022-08-26T22:00:08.223Z,99580.47
2022-08-26T22:03:09.676Z,99578.50
2022-08-26T22:06:11.263Z,99580.09
2022-08-26T22:09:15.205Z,99581.97
2022-08-26T22:12:18.297Z,99585.66
2022-08-26T22:15:22.908Z,99603.38
2022-08-26T22:18:26.540Z,99591.56
2022-08-26T22:21:28.412Z,99609.41
2022-08-26T22:24:29.868Z,99611.47
2022-08-26T22:27:31.328Z,99607.19
2022-08-26T22:30:35.113Z,99609.28
2022-08-26T22:33:37.919Z,99603.34
2022-08-26T22:36:43.611Z,99606.81
2022-08-26T22:39:46.131Z,99614.06
2022-08-26T22:42:55.722Z,99614.97
2022-08-26T22:46:00.309Z,99621.47
2022-08-26T22:49:04.311Z,99619.25
2022-08-26T22:52:05.787Z,99618.47
2022-08-26T22:55:08.101Z,99612.16
2022-08-26T22:58:11.576Z,99605.97
2022-08-26T23:01:13.771Z,99601.22
2022-08-26T23:04:15.467Z,99596.66
2022-08-26T23:07:16.911Z,99594.69
2022-08-26T23:10:18.376Z,99595.88
2022-08-26T23:13:20.305Z,99594.88
2022-08-26T23:16:21.819Z,99590.00
2022-08-26T23:19:23.792Z,99598.66
2022-08-26T23:22:25.330Z,99598.56
2022-08-26T23:25:29.490Z,99600.94
2022-08-26T23:28:31.989Z,99594.13
2022-08-26T23:31:33.942Z,99601.13
2022-08-26T23:34:53.812Z,99594.41
2022-08-26T23:37:57.775Z,99596.66
2022-08-26T23:41:00.427Z,99593.09
2022-08-26T23:44:06.331Z,99592.91
2022-08-26T23:47:08.365Z,99597.25
2022-08-26T23:50:09.966Z,99585.84
2022-08-26T23:53:19.229Z,99586.66
2022-08-26T23:56:20.781Z,99596.34
2022-08-26T23:59:22.232Z,99603.88
